sensor_id;sensor_type;location;lat;lon;timestamp;temperature;humidity
53926;DHT22;39836;52.754;6.866;2023-07-24T00:41:10;17.10;83.50
53926;DHT22;39836;52.754;6.866;2023-07-24T00:43:40;17.10;83.50
53926;DHT22;39836;52.754;6.866;2023-07-24T00:46:18;17.10;83.50
53926;DHT22;39836;52.754;6.866;2023-07-24T00:49:05;17.10;83.50
53926;DHT22;39836;52.754;6.866;2023-07-24T00:51:38;17.10;83.50
53926;DHT22;39836;52.754;6.866;2023-07-24T00:54:05;17.10;83.50
53926;DHT22;39836;52.754;6.866;2023-07-24T00:56:31;17.00;83.40
53926;DHT22;39836;52.754;6.866;2023-07-24T00:58:58;17.00;83.40
53926;DHT22;39836;52.754;6.866;2023-07-24T01:01:25;17.00;83.40
53926;DHT22;39836;52.754;6.866;2023-07-24T01:03:51;17.00;83.40
53926;DHT22;39836;52.754;6.866;2023-07-24T01:06:17;17.00;83.40
53926;DHT22;39836;52.754;6.866;2023-07-24T01:08:43;17.00;83.40
53926;DHT22;39836;52.754;6.866;2023-07-24T01:11:33;16.90;83.40
53926;DHT22;39836;52.754;6.866;2023-07-24T01:16:50;16.90;83.40
53926;DHT22;39836;52.754;6.866;2023-07-24T07:25:00;18.20;83.10
53926;DHT22;39836;52.754;6.866;2023-07-24T09:41:44;21.70;78.30
53926;DHT22;39836;52.754;6.866;2023-07-24T09:44:18;22.10;77.40
53926;DHT22;39836;52.754;6.866;2023-07-24T09:46:45;22.20;78.10
53926;DHT22;39836;52.754;6.866;2023-07-24T09:49:14;22.20;77.70
53926;DHT22;39836;52.754;6.866;2023-07-24T09:51:46;22.10;77.60
53926;DHT22;39836;52.754;6.866;2023-07-24T09:54:22;22.20;78.30
53926;DHT22;39836;52.754;6.866;2023-07-24T09:56:50;22.10;77.50
53926;DHT22;39836;52.754;6.866;2023-07-24T09:59:16;21.90;77.30
53926;DHT22;39836;52.754;6.866;2023-07-24T10:01:43;21.80;77.40
53926;DHT22;39836;52.754;6.866;2023-07-24T10:04:09;21.90;77.50
53926;DHT22;39836;52.754;6.866;2023-07-24T10:06:35;22.20;77.90
53926;DHT22;39836;52.754;6.866;2023-07-24T10:09:02;22.20;77.60
53926;DHT22;39836;52.754;6.866;2023-07-24T10:11:28;22.40;77.60
53926;DHT22;39836;52.754;6.866;2023-07-24T10:13:55;22.50;77.10
53926;DHT22;39836;52.754;6.866;2023-07-24T10:16:21;22.50;76.80
53926;DHT22;39836;52.754;6.866;2023-07-24T10:18:47;22.30;76.50
53926;DHT22;39836;52.754;6.866;2023-07-24T10:21:14;22.20;76.70
53926;DHT22;39836;52.754;6.866;2023-07-24T10:23:44;22.30;76.70
53926;DHT22;39836;52.754;6.866;2023-07-24T10:26:12;22.40;76.30
53926;DHT22;39836;52.754;6.866;2023-07-24T10:28:39;22.40;76.60
53926;DHT22;39836;52.754;6.866;2023-07-24T10:31:25;22.50;76.50
53926;DHT22;39836;52.754;6.866;2023-07-24T10:33:55;22.70;76.40
53926;DHT22;39836;52.754;6.866;2023-07-24T10:36:23;22.70;76.50
53926;DHT22;39836;52.754;6.866;2023-07-24T10:38:54;22.80;76.20
53926;DHT22;39836;52.754;6.866;2023-07-24T10:41:20;22.90;76.30
53926;DHT22;39836;52.754;6.866;2023-07-24T10:43:48;23.10;76.20
53926;DHT22;39836;52.754;6.866;2023-07-24T10:46:15;23.10;75.70
53926;DHT22;39836;52.754;6.866;2023-07-24T10:48:49;23.30;76.00
53926;DHT22;39836;52.754;6.866;2023-07-24T10:51:15;23.40;75.50
53926;DHT22;39836;52.754;6.866;2023-07-24T10:53:48;23.10;75.00
53926;DHT22;39836;52.754;6.866;2023-07-24T10:56:15;23.00;75.20
53926;DHT22;39836;52.754;6.866;2023-07-24T10:58:41;23.10;75.50
53926;DHT22;39836;52.754;6.866;2023-07-24T11:01:08;23.30;75.50
53926;DHT22;39836;52.754;6.866;2023-07-24T11:03:40;23.40;75.20
53926;DHT22;39836;52.754;6.866;2023-07-24T11:06:15;23.50;75.00
53926;DHT22;39836;52.754;6.866;2023-07-24T11:08:41;23.70;74.80
53926;DHT22;39836;52.754;6.866;2023-07-24T11:11:07;24.00;75.00
53926;DHT22;39836;52.754;6.866;2023-07-24T11:13:33;24.20;74.90
53926;DHT22;39836;52.754;6.866;2023-07-24T11:16:07;24.30;74.70
53926;DHT22;39836;52.754;6.866;2023-07-24T11:18:32;24.40;74.10
53926;DHT22;39836;52.754;6.866;2023-07-24T11:20:58;24.30;74.00
53926;DHT22;39836;52.754;6.866;2023-07-24T11:23:24;24.20;73.90
53926;DHT22;39836;52.754;6.866;2023-07-24T11:25:53;24.00;73.80
53926;DHT22;39836;52.754;6.866;2023-07-24T11:28:20;24.00;73.90
53926;DHT22;39836;52.754;6.866;2023-07-24T11:30:45;23.90;74.10
53926;DHT22;39836;52.754;6.866;2023-07-24T11:33:14;23.80;74.20
53926;DHT22;39836;52.754;6.866;2023-07-24T11:35:40;23.70;74.00
53926;DHT22;39836;52.754;6.866;2023-07-24T11:38:08;23.60;74.10
53926;DHT22;39836;52.754;6.866;2023-07-24T11:40:41;23.50;74.00
53926;DHT22;39836;52.754;6.866;2023-07-24T11:43:20;23.30;73.80
53926;DHT22;39836;52.754;6.866;2023-07-24T11:45:47;23.20;73.70
53926;DHT22;39836;52.754;6.866;2023-07-24T11:48:24;23.10;73.80
53926;DHT22;39836;52.754;6.866;2023-07-24T11:50:52;23.10;74.10
53926;DHT22;39836;52.754;6.866;2023-07-24T11:53:23;23.00;73.80
53926;DHT22;39836;52.754;6.866;2023-07-24T11:55:50;23.00;74.00
53926;DHT22;39836;52.754;6.866;2023-07-24T11:58:17;23.10;74.30
53926;DHT22;39836;52.754;6.866;2023-07-24T12:00:43;23.20;74.60
53926;DHT22;39836;52.754;6.866;2023-07-24T12:03:08;23.30;74.70
53926;DHT22;39836;52.754;6.866;2023-07-24T12:05:42;23.30;74.10
53926;DHT22;39836;52.754;6.866;2023-07-24T12:08:09;23.40;73.90
53926;DHT22;39836;52.754;6.866;2023-07-24T12:10:38;23.30;73.70
53926;DHT22;39836;52.754;6.866;2023-07-24T12:13:04;23.20;73.50
53926;DHT22;39836;52.754;6.866;2023-07-24T12:15:30;23.20;73.70
53926;DHT22;39836;52.754;6.866;2023-07-24T12:17:56;23.20;73.70
53926;DHT22;39836;52.754;6.866;2023-07-24T12:20:23;23.30;73.90
53926;DHT22;39836;52.754;6.866;2023-07-24T12:22:49;23.30;73.80
53926;DHT22;39836;52.754;6.866;2023-07-24T12:25:15;23.30;73.80
53926;DHT22;39836;52.754;6.866;2023-07-24T12:27:43;23.40;73.90
53926;DHT22;39836;52.754;6.866;2023-07-24T12:30:09;23.30;73.70
53926;DHT22;39836;52.754;6.866;2023-07-24T12:32:35;23.40;73.90
53926;DHT22;39836;52.754;6.866;2023-07-24T12:35:00;23.40;73.70
53926;DHT22;39836;52.754;6.866;2023-07-24T12:37:26;23.50;73.90
53926;DHT22;39836;52.754;6.866;2023-07-24T12:39:52;23.60;73.60
53926;DHT22;39836;52.754;6.866;2023-07-24T12:42:18;23.70;73.60
53926;DHT22;39836;52.754;6.866;2023-07-24T12:44:44;23.70;73.40
53926;DHT22;39836;52.754;6.866;2023-07-24T12:47:10;23.70;73.50
53926;DHT22;39836;52.754;6.866;2023-07-24T12:49:36;23.90;73.60
53926;DHT22;39836;52.754;6.866;2023-07-24T12:52:02;24.10;73.50
53926;DHT22;39836;52.754;6.866;2023-07-24T12:54:28;24.40;73.60
53926;DHT22;39836;52.754;6.866;2023-07-24T12:56:54;24.60;73.60
53926;DHT22;39836;52.754;6.866;2023-07-24T12:59:19;24.70;73.50
53926;DHT22;39836;52.754;6.866;2023-07-24T13:01:46;24.80;73.40
53926;DHT22;39836;52.754;6.866;2023-07-24T13:04:12;24.70;73.30
53926;DHT22;39836;52.754;6.866;2023-07-24T13:06:38;24.60;73.20
53926;DHT22;39836;52.754;6.866;2023-07-24T13:09:04;24.60;73.40
53926;DHT22;39836;52.754;6.866;2023-07-24T13:11:30;24.60;73.40
53926;DHT22;39836;52.754;6.866;2023-07-24T13:13:56;24.80;73.50
53926;DHT22;39836;52.754;6.866;2023-07-24T13:16:22;25.00;73.70
53926;DHT22;39836;52.754;6.866;2023-07-24T13:18:48;25.00;73.60
53926;DHT22;39836;52.754;6.866;2023-07-24T13:21:14;25.00;73.50
53926;DHT22;39836;52.754;6.866;2023-07-24T13:23:40;25.10;73.70
53926;DHT22;39836;52.754;6.866;2023-07-24T13:26:06;25.30;73.50
53926;DHT22;39836;52.754;6.866;2023-07-24T13:28:39;25.50;73.30
53926;DHT22;39836;52.754;6.866;2023-07-24T13:31:13;25.80;73.40
53926;DHT22;39836;52.754;6.866;2023-07-24T13:33:39;26.10;73.00
53926;DHT22;39836;52.754;6.866;2023-07-24T13:36:05;26.10;72.20
53926;DHT22;39836;52.754;6.866;2023-07-24T13:38:31;26.20;72.20
53926;DHT22;39836;52.754;6.866;2023-07-24T13:40:58;26.10;71.90
53926;DHT22;39836;52.754;6.866;2023-07-24T13:43:23;26.20;71.80
53926;DHT22;39836;52.754;6.866;2023-07-24T13:45:49;26.30;71.60
53926;DHT22;39836;52.754;6.866;2023-07-24T13:48:15;26.20;71.40
53926;DHT22;39836;52.754;6.866;2023-07-24T13:50:40;25.80;71.20
53926;DHT22;39836;52.754;6.866;2023-07-24T13:53:06;25.30;70.90
53926;DHT22;39836;52.754;6.866;2023-07-24T13:55:32;24.80;71.00
53926;DHT22;39836;52.754;6.866;2023-07-24T13:57:57;24.40;71.20
53926;DHT22;39836;52.754;6.866;2023-07-24T14:00:23;24.10;71.40
53926;DHT22;39836;52.754;6.866;2023-07-24T14:02:49;23.70;71.60
53926;DHT22;39836;52.754;6.866;2023-07-24T14:05:16;23.10;72.10
53926;DHT22;39836;52.754;6.866;2023-07-24T14:07:42;22.60;72.60
53926;DHT22;39836;52.754;6.866;2023-07-24T14:10:08;21.80;77.00
53926;DHT22;39836;52.754;6.866;2023-07-24T14:12:34;20.70;78.00
53926;DHT22;39836;52.754;6.866;2023-07-24T14:14:59;19.60;80.30
53926;DHT22;39836;52.754;6.866;2023-07-24T14:17:25;19.10;80.90
53926;DHT22;39836;52.754;6.866;2023-07-24T14:19:51;18.70;81.50
53926;DHT22;39836;52.754;6.866;2023-07-24T14:22:16;18.50;81.90
53926;DHT22;39836;52.754;6.866;2023-07-24T14:24:42;18.40;82.20
53926;DHT22;39836;52.754;6.866;2023-07-24T14:27:08;18.40;82.50
53926;DHT22;39836;52.754;6.866;2023-07-24T14:29:33;18.40;82.90
53926;DHT22;39836;52.754;6.866;2023-07-24T14:31:59;18.50;83.10
53926;DHT22;39836;52.754;6.866;2023-07-24T14:34:25;18.60;83.50
53926;DHT22;39836;52.754;6.866;2023-07-24T14:36:50;18.70;83.50
53926;DHT22;39836;52.754;6.866;2023-07-24T14:39:18;18.70;83.70
53926;DHT22;39836;52.754;6.866;2023-07-24T14:41:43;18.70;83.70
53926;DHT22;39836;52.754;6.866;2023-07-24T14:44:09;18.80;83.60
53926;DHT22;39836;52.754;6.866;2023-07-24T14:46:36;18.80;83.50
53926;DHT22;39836;52.754;6.866;2023-07-24T14:49:01;18.70;83.60
53926;DHT22;39836;52.754;6.866;2023-07-24T14:51:27;18.60;83.70
53926;DHT22;39836;52.754;6.866;2023-07-24T14:53:53;18.70;83.90
53926;DHT22;39836;52.754;6.866;2023-07-24T14:56:19;18.80;84.10
53926;DHT22;39836;52.754;6.866;2023-07-24T14:58:45;18.80;84.00
53926;DHT22;39836;52.754;6.866;2023-07-24T15:01:12;18.70;84.00
53926;DHT22;39836;52.754;6.866;2023-07-24T15:03:37;18.80;84.10
53926;DHT22;39836;52.754;6.866;2023-07-24T15:06:03;18.90;84.40
53926;DHT22;39836;52.754;6.866;2023-07-24T15:08:32;19.00;84.70
53926;DHT22;39836;52.754;6.866;2023-07-24T15:10:58;19.40;85.00
53926;DHT22;39836;52.754;6.866;2023-07-24T15:13:23;19.60;85.00
53926;DHT22;39836;52.754;6.866;2023-07-24T15:15:49;19.70;85.00
53926;DHT22;39836;52.754;6.866;2023-07-24T15:18:15;19.60;84.90
53926;DHT22;39836;52.754;6.866;2023-07-24T15:20:41;19.50;84.60
53926;DHT22;39836;52.754;6.866;2023-07-24T15:23:07;19.40;84.70
53926;DHT22;39836;52.754;6.866;2023-07-24T15:25:32;19.30;84.60
53926;DHT22;39836;52.754;6.866;2023-07-24T15:27:58;19.30;85.10
53926;DHT22;39836;52.754;6.866;2023-07-24T15:30:24;19.00;84.50
53926;DHT22;39836;52.754;6.866;2023-07-24T15:32:50;18.90;84.30
53926;DHT22;39836;52.754;6.866;2023-07-24T15:35:16;18.80;84.40
53926;DHT22;39836;52.754;6.866;2023-07-24T15:37:42;18.90;84.60
53926;DHT22;39836;52.754;6.866;2023-07-24T15:40:09;18.90;84.50
53926;DHT22;39836;52.754;6.866;2023-07-24T15:42:35;19.00;84.70
53926;DHT22;39836;52.754;6.866;2023-07-24T15:45:01;18.90;84.50
53926;DHT22;39836;52.754;6.866;2023-07-24T15:47:27;18.80;83.70
53926;DHT22;39836;52.754;6.866;2023-07-24T15:49:52;18.60;83.80
53926;DHT22;39836;52.754;6.866;2023-07-24T15:52:18;18.50;83.50
53926;DHT22;39836;52.754;6.866;2023-07-24T15:54:44;18.50;83.30
53926;DHT22;39836;52.754;6.866;2023-07-24T15:57:11;18.60;83.90
53926;DHT22;39836;52.754;6.866;2023-07-24T15:59:36;18.70;83.90
53926;DHT22;39836;52.754;6.866;2023-07-24T16:02:03;18.60;83.60
53926;DHT22;39836;52.754;6.866;2023-07-24T16:04:29;18.50;83.10
53926;DHT22;39836;52.754;6.866;2023-07-24T16:06:55;18.60;83.00
53926;DHT22;39836;52.754;6.866;2023-07-24T16:09:20;18.70;82.60
53926;DHT22;39836;52.754;6.866;2023-07-24T16:11:47;18.70;82.70
53926;DHT22;39836;52.754;6.866;2023-07-24T16:14:13;18.80;82.80
53926;DHT22;39836;52.754;6.866;2023-07-24T16:16:40;19.00;83.10
53926;DHT22;39836;52.754;6.866;2023-07-24T16:19:19;19.00;82.30
53926;DHT22;39836;52.754;6.866;2023-07-24T16:21:47;18.90;81.80
53926;DHT22;39836;52.754;6.866;2023-07-24T16:24:13;18.80;82.00
53926;DHT22;39836;52.754;6.866;2023-07-24T16:26:40;18.80;82.00
53926;DHT22;39836;52.754;6.866;2023-07-24T16:29:07;18.80;81.70
53926;DHT22;39836;52.754;6.866;2023-07-24T16:31:33;18.70;81.30
53926;DHT22;39836;52.754;6.866;2023-07-24T16:33:58;18.70;81.40
53926;DHT22;39836;52.754;6.866;2023-07-24T16:36:24;18.70;81.30
53926;DHT22;39836;52.754;6.866;2023-07-24T16:38:50;18.70;81.30
53926;DHT22;39836;52.754;6.866;2023-07-24T16:41:17;18.70;81.10
53926;DHT22;39836;52.754;6.866;2023-07-24T16:43:43;18.60;79.50
53926;DHT22;39836;52.754;6.866;2023-07-24T16:46:11;18.60;81.00
53926;DHT22;39836;52.754;6.866;2023-07-24T16:48:37;18.50;80.50
53926;DHT22;39836;52.754;6.866;2023-07-24T16:51:03;18.50;80.80
53926;DHT22;39836;52.754;6.866;2023-07-24T16:53:28;18.60;80.50
53926;DHT22;39836;52.754;6.866;2023-07-24T16:55:54;18.80;80.20
53926;DHT22;39836;52.754;6.866;2023-07-24T16:58:20;18.70;80.00
53926;DHT22;39836;52.754;6.866;2023-07-24T17:00:45;18.60;79.60
53926;DHT22;39836;52.754;6.866;2023-07-24T17:03:11;18.50;79.20
53926;DHT22;39836;52.754;6.866;2023-07-24T17:05:37;18.30;79.30
53926;DHT22;39836;52.754;6.866;2023-07-24T17:08:02;18.20;79.10
53926;DHT22;39836;52.754;6.866;2023-07-24T17:10:40;18.00;79.20
53926;DHT22;39836;52.754;6.866;2023-07-24T17:13:06;18.00;79.60
53926;DHT22;39836;52.754;6.866;2023-07-24T17:15:32;17.90;80.00
53926;DHT22;39836;52.754;6.866;2023-07-24T17:17:59;17.90;79.80
53926;DHT22;39836;52.754;6.866;2023-07-24T17:20:25;17.80;79.90
53926;DHT22;39836;52.754;6.866;2023-07-24T17:22:51;17.80;79.90
53926;DHT22;39836;52.754;6.866;2023-07-24T17:25:18;17.70;79.90
53926;DHT22;39836;52.754;6.866;2023-07-24T18:05:51;17.50;79.70
53926;DHT22;39836;52.754;6.866;2023-07-24T18:08:40;17.40;79.60
53926;DHT22;39836;52.754;6.866;2023-07-24T19:26:37;16.30;79.50
53926;DHT22;39836;52.754;6.866;2023-07-24T21:16:23;15.60;80.20
53926;DHT22;39836;52.754;6.866;2023-07-24T21:18:49;15.50;80.20
53926;DHT22;39836;52.754;6.866;2023-07-24T21:21:15;15.40;80.20
53926;DHT22;39836;52.754;6.866;2023-07-24T21:23:49;15.40;80.30
53926;DHT22;39836;52.754;6.866;2023-07-24T21:26:18;15.30;80.30
53926;DHT22;39836;52.754;6.866;2023-07-24T21:28:43;15.20;80.30
53926;DHT22;39836;52.754;6.866;2023-07-24T21:31:10;15.20;80.30
53926;DHT22;39836;52.754;6.866;2023-07-24T21:33:37;15.10;80.40
53926;DHT22;39836;52.754;6.866;2023-07-24T21:36:06;15.10;80.40
53926;DHT22;39836;52.754;6.866;2023-07-24T21:38:32;15.00;80.40
53926;DHT22;39836;52.754;6.866;2023-07-24T21:40:58;14.90;80.40
53926;DHT22;39836;52.754;6.866;2023-07-24T21:43:24;14.90;80.50
53926;DHT22;39836;52.754;6.866;2023-07-24T21:45:54;14.80;80.50
53926;DHT22;39836;52.754;6.866;2023-07-24T21:48:20;14.80;80.50
53926;DHT22;39836;52.754;6.866;2023-07-24T22:13:52;14.30;80.70
